Time;durP1;ratioP1;P1;durP2;ratioP2;P2;SDS_P1;SDS_P2;PMS_P1;PMS_P2;Temp;Humidity;BMP_temperature;BMP_pressure;BME280_temperature;BME280_humidity;BME280_pressure;Samples;Min_cycle;Max_cycle;Signal;HPM_P1;HPM_P2
2022/07/20 00:00:39;;;;;;;9.27;6.18;;;;;;;;;;5029004;28;20025;-56
2022/07/20 00:03:06;;;;;;;12.77;5.78;;;;;;;;;;5023253;28;20033;-55
2022/07/20 00:05:32;;;;;;;9.27;5.85;;;;;;;;;;5020855;28;20030;-56
2022/07/20 00:07:58;;;;;;;9.70;5.72;;;;;;;;;;5029903;28;20438;-55
2022/07/20 00:13:08;;;;;;;14.02;6.03;;;;;;;;;;5026034;28;20040;-56
2022/07/20 00:15:34;;;;;;;8.10;5.57;;;;;;;;;;5028435;28;20030;-56
2022/07/20 00:17:59;;;;;;;8.80;5.07;;;;;;;;;;5028019;28;20029;-56
2022/07/20 00:20:25;;;;;;;8.85;5.40;;;;;;;;;;5028656;28;20112;-56
2022/07/20 00:22:50;;;;;;;10.35;5.25;;;;;;;;;;5028599;28;20076;-56
2022/07/20 00:25:16;;;;;;;10.48;5.35;;;;;;;;;;5028417;28;20017;-56
2022/07/20 00:27:41;;;;;;;9.23;5.25;;;;;;;;;;5026522;28;20037;-56
2022/07/20 00:30:07;;;;;;;12.88;5.15;;;;;;;;;;5025420;28;20041;-55
2022/07/20 00:32:37;;;;;;;14.27;5.57;;;;;;;;;;5025607;28;20487;-55
2022/07/20 00:35:05;;;;;;;8.07;5.65;;;;;;;;;;5021675;28;20121;-56
2022/07/20 00:37:30;;;;;;;9.63;5.90;;;;;;;;;;5026237;28;20033;-56
2022/07/20 00:39:56;;;;;;;8.63;5.50;;;;;;;;;;5027973;28;20148;-55
2022/07/20 00:42:21;;;;;;;12.30;5.90;;;;;;;;;;5026091;28;20041;-56
2022/07/20 00:44:46;;;;;;;9.82;5.22;;;;;;;;;;5022556;28;20064;-56
2022/07/20 00:47:12;;;;;;;10.20;5.60;;;;;;;;;;5028118;28;20034;-56
2022/07/20 00:49:37;;;;;;;13.98;5.43;;;;;;;;;;5027317;28;20116;-56
2022/07/20 00:52:03;;;;;;;9.93;5.22;;;;;;;;;;5024129;28;20088;-56
2022/07/20 00:54:29;;;;;;;10.23;5.35;;;;;;;;;;5024546;28;20453;-55
2022/07/20 00:56:56;;;;;;;11.00;5.43;;;;;;;;;;5023978;28;20049;-56
2022/07/20 00:59:21;;;;;;;9.80;5.53;;;;;;;;;;5023880;28;20483;-56
2022/07/20 01:01:47;;;;;;;13.98;5.80;;;;;;;;;;5027712;28;20029;-56
2022/07/20 01:04:12;;;;;;;9.38;5.10;;;;;;;;;;5026829;28;20060;-55
2022/07/20 01:06:38;;;;;;;9.43;5.00;;;;;;;;;;5022215;28;20033;-55
2022/07/20 01:09:03;;;;;;;11.23;5.65;;;;;;;;;;5028078;28;20363;-55
2022/07/20 01:11:29;;;;;;;9.20;5.25;;;;;;;;;;5026472;28;20116;-56
2022/07/20 01:14:06;;;;;;;10.75;5.63;;;;;;;;;;5028285;28;20274;-56
2022/07/20 01:16:32;;;;;;;8.85;5.00;;;;;;;;;;5020245;28;20029;-56
2022/07/20 01:18:59;;;;;;;9.80;5.32;;;;;;;;;;5025318;28;20027;-56
2022/07/20 01:21:24;;;;;;;9.27;5.43;;;;;;;;;;5026068;28;20104;-56
2022/07/20 01:23:50;;;;;;;10.55;5.05;;;;;;;;;;5027815;28;20463;-56
2022/07/20 01:26:17;;;;;;;9.32;5.30;;;;;;;;;;5025610;28;20495;-56
2022/07/20 01:28:43;;;;;;;9.52;5.20;;;;;;;;;;5024618;28;20032;-56
2022/07/20 01:31:08;;;;;;;9.98;5.10;;;;;;;;;;5023529;28;20026;-56
2022/07/20 01:33:34;;;;;;;11.95;5.30;;;;;;;;;;5027212;28;20045;-55
2022/07/20 01:35:59;;;;;;;10.75;5.13;;;;;;;;;;5024021;28;20649;-56
2022/07/20 01:38:24;;;;;;;10.50;5.05;;;;;;;;;;5022736;28;20100;-55
2022/07/20 01:40:50;;;;;;;9.10;4.95;;;;;;;;;;5022268;28;20120;-55
2022/07/20 01:43:15;;;;;;;6.63;4.97;;;;;;;;;;5027649;28;20033;-56
2022/07/20 01:45:41;;;;;;;9.35;4.93;;;;;;;;;;5026143;28;20094;-56
2022/07/20 01:48:06;;;;;;;9.63;5.53;;;;;;;;;;5021472;28;20152;-56
2022/07/20 01:50:32;;;;;;;10.68;4.93;;;;;;;;;;5023037;28;20056;-56
2022/07/20 01:52:57;;;;;;;8.80;5.10;;;;;;;;;;5027795;28;20021;-56
2022/07/20 01:55:23;;;;;;;9.43;4.68;;;;;;;;;;5021203;28;20594;-55
2022/07/20 01:57:48;;;;;;;7.43;4.50;;;;;;;;;;5022272;28;20037;-56
2022/07/20 02:00:14;;;;;;;10.25;4.82;;;;;;;;;;5019643;28;20025;-56
2022/07/20 02:02:41;;;;;;;15.30;5.60;;;;;;;;;;5023103;28;20430;-57
2022/07/20 02:05:08;;;;;;;10.38;5.88;;;;;;;;;;5021436;28;20037;-56
2022/07/20 02:07:34;;;;;;;8.80;4.80;;;;;;;;;;5028044;28;20052;-56
2022/07/20 02:09:59;;;;;;;8.18;4.68;;;;;;;;;;5026471;28;20037;-55
2022/07/20 02:12:25;;;;;;;11.00;4.97;;;;;;;;;;5032946;28;20124;-56
2022/07/20 02:14:50;;;;;;;8.57;4.72;;;;;;;;;;5026337;28;20483;-56
2022/07/20 02:17:16;;;;;;;8.35;4.95;;;;;;;;;;5023337;28;20025;-55
2022/07/20 02:19:41;;;;;;;7.35;4.90;;;;;;;;;;5027257;28;20057;-56
2022/07/20 02:22:07;;;;;;;12.65;5.00;;;;;;;;;;5025824;28;20021;-56
2022/07/20 02:24:32;;;;;;;7.55;4.80;;;;;;;;;;5024625;28;20334;-56
2022/07/20 02:26:57;;;;;;;12.07;5.15;;;;;;;;;;5025687;28;20021;-56
2022/07/20 02:29:23;;;;;;;6.93;4.65;;;;;;;;;;5024264;28;20506;-56
2022/07/20 02:31:48;;;;;;;7.93;5.05;;;;;;;;;;5029057;28;20028;-56
2022/07/20 02:34:14;;;;;;;10.43;4.55;;;;;;;;;;5029753;28;20087;-56
2022/07/20 02:36:39;;;;;;;8.85;4.43;;;;;;;;;;5027878;28;20029;-55
2022/07/20 02:39:05;;;;;;;13.02;5.22;;;;;;;;;;5030739;28;20033;-55
2022/07/20 02:41:32;;;;;;;7.50;4.40;;;;;;;;;;5027010;28;20067;-54
2022/07/20 02:43:58;;;;;;;10.50;4.88;;;;;;;;;;5026483;28;20017;-55
2022/07/20 02:46:24;;;;;;;7.05;4.50;;;;;;;;;;5026062;28;20033;-56
2022/07/20 02:48:49;;;;;;;10.15;6.05;;;;;;;;;;5020021;28;20030;-55
2022/07/20 02:51:15;;;;;;;11.57;4.90;;;;;;;;;;5029606;28;20040;-55
2022/07/20 02:53:40;;;;;;;7.45;4.70;;;;;;;;;;5030884;28;20021;-55
2022/07/20 02:56:05;;;;;;;7.35;4.85;;;;;;;;;;5028239;28;20080;-55
2022/07/20 02:58:31;;;;;;;9.23;5.15;;;;;;;;;;5026619;28;20581;-55
2022/07/20 03:00:57;;;;;;;10.60;4.88;;;;;;;;;;5027503;28;20026;-55
2022/07/20 03:03:23;;;;;;;8.43;5.28;;;;;;;;;;5022993;28;20037;-56
2022/07/20 03:05:48;;;;;;;7.47;5.63;;;;;;;;;;5031342;28;20022;-55
2022/07/20 03:08:14;;;;;;;6.50;4.93;;;;;;;;;;5029512;28;20033;-56
2022/07/20 03:10:39;;;;;;;8.43;4.97;;;;;;;;;;5028564;28;20128;-56
2022/07/20 03:13:05;;;;;;;6.68;4.88;;;;;;;;;;5029768;28;20477;-56
2022/07/20 03:15:30;;;;;;;9.95;4.97;;;;;;;;;;5028602;28;20486;-55
2022/07/20 03:17:56;;;;;;;11.18;4.85;;;;;;;;;;5028268;28;20434;-56
2022/07/20 03:20:27;;;;;;;9.02;5.70;;;;;;;;;;5028651;28;20438;-55
2022/07/20 03:22:53;;;;;;;12.77;5.53;;;;;;;;;;5028018;28;20108;-56
2022/07/20 03:25:19;;;;;;;8.45;5.70;;;;;;;;;;5027995;28;20113;-56
2022/07/20 03:27:44;;;;;;;10.23;5.82;;;;;;;;;;5030383;28;20029;-55
2022/07/20 03:30:10;;;;;;;11.25;6.03;;;;;;;;;;5025409;28;20036;-55
2022/07/20 03:32:36;;;;;;;17.42;6.10;;;;;;;;;;5029676;28;20025;-56
2022/07/20 03:35:01;;;;;;;12.15;5.82;;;;;;;;;;5027346;28;20026;-56
2022/07/20 03:37:27;;;;;;;9.93;5.90;;;;;;;;;;5025585;28;20022;-55
2022/07/20 03:39:52;;;;;;;8.07;5.05;;;;;;;;;;5027714;28;20026;-55
2022/07/20 03:42:18;;;;;;;9.70;5.45;;;;;;;;;;5024544;28;20041;-56
2022/07/20 03:44:43;;;;;;;13.25;7.97;;;;;;;;;;5026874;28;20083;-54
2022/07/20 03:47:09;;;;;;;11.25;6.63;;;;;;;;;;5023238;28;20112;-56
2022/07/20 03:49:35;;;;;;;12.90;6.65;;;;;;;;;;5022400;28;20048;-56
2022/07/20 03:52:00;;;;;;;9.63;5.40;;;;;;;;;;5026719;28;20025;-55
2022/07/20 03:54:26;;;;;;;8.88;5.45;;;;;;;;;;5028555;28;20033;-54
2022/07/20 03:56:51;;;;;;;8.13;4.95;;;;;;;;;;5023033;28;20438;-56
2022/07/20 03:59:16;;;;;;;8.65;5.47;;;;;;;;;;5021455;28;20395;-55
2022/07/20 04:01:42;;;;;;;10.55;5.75;;;;;;;;;;5021072;28;20392;-56
2022/07/20 04:04:07;;;;;;;9.00;5.65;;;;;;;;;;5029701;28;20112;-55
2022/07/20 04:06:33;;;;;;;8.60;5.15;;;;;;;;;;5029596;28;20030;-56
2022/07/20 04:08:58;;;;;;;8.98;5.50;;;;;;;;;;5028024;28;20049;-56
2022/07/20 04:11:24;;;;;;;10.23;5.15;;;;;;;;;;5026307;28;20028;-56
2022/07/20 04:13:49;;;;;;;10.55;5.55;;;;;;;;;;5028714;28;20037;-56
2022/07/20 04:16:15;;;;;;;10.35;5.07;;;;;;;;;;5026993;28;20031;-55
2022/07/20 04:18:40;;;;;;;11.43;6.20;;;;;;;;;;5029065;28;20471;-55
2022/07/20 04:21:06;;;;;;;12.68;6.97;;;;;;;;;;5024222;28;20037;-56
2022/07/20 04:23:31;;;;;;;11.68;5.20;;;;;;;;;;5026756;28;20541;-55
2022/07/20 04:25:56;;;;;;;10.13;5.07;;;;;;;;;;5029607;28;20472;-55
2022/07/20 04:28:22;;;;;;;12.77;5.68;;;;;;;;;;5026759;28;20033;-55
2022/07/20 04:30:48;;;;;;;14.88;7.28;;;;;;;;;;5026897;28;20034;-55
2022/07/20 04:33:13;;;;;;;13.65;5.57;;;;;;;;;;5022283;28;20021;-56
2022/07/20 04:35:38;;;;;;;8.63;5.28;;;;;;;;;;5028390;28;20495;-56
2022/07/20 04:38:04;;;;;;;8.95;5.88;;;;;;;;;;5028610;28;20033;-56
2022/07/20 04:40:29;;;;;;;9.38;5.60;;;;;;;;;;5026503;28;20056;-56
2022/07/20 04:42:54;;;;;;;10.52;5.68;;;;;;;;;;5022610;28;20259;-55
2022/07/20 04:45:20;;;;;;;10.27;5.85;;;;;;;;;;5022450;28;20187;-56
2022/07/20 04:47:46;;;;;;;14.77;8.82;;;;;;;;;;5026076;28;20075;-56
2022/07/20 04:50:12;;;;;;;16.33;9.15;;;;;;;;;;5023942;28;20033;-56
2022/07/20 04:52:37;;;;;;;8.00;5.82;;;;;;;;;;5019361;28;20450;-56
2022/07/20 04:55:04;;;;;;;9.77;6.40;;;;;;;;;;5023892;28;20025;-56
2022/07/20 04:57:29;;;;;;;13.15;6.72;;;;;;;;;;5029532;28;20037;-56
2022/07/20 04:59:54;;;;;;;15.57;7.50;;;;;;;;;;5020531;28;20018;-56
2022/07/20 05:02:20;;;;;;;10.43;5.95;;;;;;;;;;5027341;28;20091;-56
2022/07/20 05:04:46;;;;;;;13.07;6.45;;;;;;;;;;5027791;28;20335;-58
2022/07/20 05:07:13;;;;;;;11.30;6.30;;;;;;;;;;5028737;28;20035;-58
2022/07/20 05:09:39;;;;;;;13.68;6.40;;;;;;;;;;5026690;28;20025;-58
2022/07/20 05:12:04;;;;;;;13.77;8.50;;;;;;;;;;5025041;28;20038;-58
2022/07/20 05:14:30;;;;;;;10.98;7.85;;;;;;;;;;5026497;28;20033;-58
2022/07/20 05:16:55;;;;;;;17.77;9.90;;;;;;;;;;5027530;28;20437;-58
2022/07/20 05:19:21;;;;;;;11.43;7.90;;;;;;;;;;5028093;28;20059;-58
2022/07/20 05:21:46;;;;;;;10.00;6.35;;;;;;;;;;5024360;28;20037;-58
2022/07/20 05:24:12;;;;;;;9.63;5.82;;;;;;;;;;5022838;28;20034;-58
2022/07/20 05:26:37;;;;;;;9.63;5.50;;;;;;;;;;5023269;28;20447;-58
2022/07/20 05:29:03;;;;;;;10.05;6.22;;;;;;;;;;5025249;28;20038;-58
2022/07/20 05:31:28;;;;;;;13.77;6.57;;;;;;;;;;5025300;28;20380;-58
2022/07/20 05:33:53;;;;;;;9.98;6.07;;;;;;;;;;5023848;28;20108;-58
2022/07/20 05:36:19;;;;;;;7.80;5.95;;;;;;;;;;5025224;28;20030;-58
2022/07/20 05:38:44;;;;;;;7.70;5.57;;;;;;;;;;5022889;28;20561;-58
2022/07/20 05:41:09;;;;;;;9.85;6.38;;;;;;;;;;5022171;28;20708;-58
2022/07/20 05:43:35;;;;;;;12.02;6.47;;;;;;;;;;5024099;28;20104;-58
2022/07/20 05:46:01;;;;;;;9.18;6.10;;;;;;;;;;5023611;28;20112;-58
2022/07/20 05:48:27;;;;;;;8.80;6.60;;;;;;;;;;5025790;28;20060;-58
2022/07/20 05:50:52;;;;;;;15.75;6.40;;;;;;;;;;5026557;28;20462;-55
2022/07/20 05:53:18;;;;;;;14.32;6.22;;;;;;;;;;5023279;28;20052;-56
2022/07/20 05:55:46;;;;;;;9.13;6.40;;;;;;;;;;5024350;28;20021;-54
2022/07/20 05:58:12;;;;;;;12.38;7.20;;;;;;;;;;5025336;28;20052;-56
2022/07/20 06:00:37;;;;;;;8.18;6.03;;;;;;;;;;5021937;28;20026;-55
2022/07/20 06:03:04;;;;;;;10.43;6.03;;;;;;;;;;5026789;28;20395;-55
2022/07/20 06:05:30;;;;;;;13.02;6.88;;;;;;;;;;5028131;28;20041;-55
2022/07/20 06:07:57;;;;;;;11.07;6.80;;;;;;;;;;5031209;28;20033;-53
2022/07/20 06:10:23;;;;;;;17.08;7.22;;;;;;;;;;5027980;28;20115;-53
2022/07/20 06:12:48;;;;;;;14.05;6.93;;;;;;;;;;5028474;28;20037;-55
2022/07/20 06:15:14;;;;;;;11.15;6.70;;;;;;;;;;5026506;28;20036;-55
2022/07/20 06:17:40;;;;;;;9.75;6.70;;;;;;;;;;5022675;28;20025;-55
2022/07/20 06:20:09;;;;;;;13.85;6.72;;;;;;;;;;5028518;28;20467;-55
2022/07/20 06:22:35;;;;;;;24.05;8.82;;;;;;;;;;5036400;28;20487;-55
2022/07/20 06:25:02;;;;;;;19.98;11.45;;;;;;;;;;5026444;28;20029;-56
2022/07/20 06:27:27;;;;;;;32.40;16.80;;;;;;;;;;5027629;28;20491;-55
2022/07/20 06:29:52;;;;;;;17.75;11.30;;;;;;;;;;5030490;28;20113;-54
2022/07/20 06:32:18;;;;;;;11.88;7.65;;;;;;;;;;5027115;28;20027;-54
2022/07/20 06:34:45;;;;;;;13.23;7.13;;;;;;;;;;5030323;28;20434;-51
2022/07/20 06:37:10;;;;;;;13.38;7.30;;;;;;;;;;5024099;28;20390;-52
2022/07/20 06:39:35;;;;;;;14.38;8.05;;;;;;;;;;5025642;28;20027;-53
2022/07/20 06:42:01;;;;;;;20.45;6.78;;;;;;;;;;5025753;28;20051;-53
2022/07/20 06:44:26;;;;;;;14.80;6.53;;;;;;;;;;5025219;28;20029;-52
2022/07/20 06:46:52;;;;;;;17.88;6.80;;;;;;;;;;5029930;28;20055;-51
2022/07/20 06:49:17;;;;;;;15.02;7.82;;;;;;;;;;5026052;28;20049;-52
2022/07/20 06:51:43;;;;;;;15.63;7.72;;;;;;;;;;5027593;28;20079;-52
2022/07/20 06:54:08;;;;;;;16.42;7.60;;;;;;;;;;5028392;28;20164;-52
2022/07/20 06:56:33;;;;;;;11.60;7.22;;;;;;;;;;5025207;28;20177;-51
2022/07/20 06:58:59;;;;;;;16.98;6.82;;;;;;;;;;5023050;28;20040;-52
2022/07/20 07:01:24;;;;;;;17.65;7.43;;;;;;;;;;5028436;28;20029;-53
2022/07/20 07:03:49;;;;;;;11.65;7.57;;;;;;;;;;5021973;28;20038;-53
2022/07/20 07:06:16;;;;;;;13.80;7.30;;;;;;;;;;5028546;28;20057;-52
2022/07/20 07:08:42;;;;;;;15.73;7.53;;;;;;;;;;5028275;28;20136;-52
2022/07/20 07:11:08;;;;;;;13.07;7.50;;;;;;;;;;5028010;28;20435;-53
2022/07/20 07:13:33;;;;;;;13.07;7.32;;;;;;;;;;5028651;28;20104;-57
2022/07/20 07:15:59;;;;;;;13.52;7.47;;;;;;;;;;5026246;28;20430;-57
2022/07/20 07:18:24;;;;;;;12.15;7.38;;;;;;;;;;5025235;28;20084;-56
2022/07/20 07:20:50;;;;;;;14.30;7.85;;;;;;;;;;5025108;28;20112;-56
2022/07/20 07:23:15;;;;;;;13.00;7.88;;;;;;;;;;5026671;28;20031;-55
2022/07/20 07:25:40;;;;;;;13.40;7.80;;;;;;;;;;5026005;28;20034;-55
2022/07/20 07:28:06;;;;;;;11.48;7.30;;;;;;;;;;5024141;28;20466;-56
2022/07/20 07:30:31;;;;;;;15.15;7.35;;;;;;;;;;5026056;28;20037;-55
2022/07/20 07:32:57;;;;;;;13.68;7.28;;;;;;;;;;5027730;28;20095;-55
2022/07/20 07:35:22;;;;;;;13.32;7.50;;;;;;;;;;5025145;28;20021;-55
2022/07/20 07:37:48;;;;;;;12.88;7.93;;;;;;;;;;5023488;28;20021;-57
2022/07/20 07:40:13;;;;;;;13.07;7.57;;;;;;;;;;5023188;28;20120;-57
2022/07/20 07:42:39;;;;;;;14.00;7.60;;;;;;;;;;5026709;28;20108;-58
2022/07/20 07:45:07;;;;;;;13.63;8.60;;;;;;;;;;5026567;28;20376;-58
2022/07/20 07:47:33;;;;;;;11.48;7.75;;;;;;;;;;5024021;28;20021;-58
2022/07/20 07:49:59;;;;;;;13.40;7.68;;;;;;;;;;5024862;28;20029;-56
2022/07/20 07:52:25;;;;;;;16.17;8.43;;;;;;;;;;5019445;28;20029;-57
2022/07/20 07:54:50;;;;;;;13.10;8.00;;;;;;;;;;5015403;28;20106;-56
2022/07/20 07:57:16;;;;;;;13.57;7.95;;;;;;;;;;5024727;28;20162;-57
2022/07/20 07:59:42;;;;;;;13.45;8.38;;;;;;;;;;5018991;28;20414;-57
2022/07/20 08:02:07;;;;;;;16.15;8.27;;;;;;;;;;5024172;28;20047;-57
2022/07/20 08:04:33;;;;;;;14.25;7.93;;;;;;;;;;5028787;28;20017;-56
2022/07/20 08:06:59;;;;;;;13.13;8.00;;;;;;;;;;5027411;28;20044;-56
2022/07/20 08:09:24;;;;;;;12.45;7.72;;;;;;;;;;5025948;28;20029;-56
2022/07/20 08:11:50;;;;;;;11.50;7.80;;;;;;;;;;5017583;28;20056;-57
2022/07/20 08:14:15;;;;;;;12.43;7.95;;;;;;;;;;5015408;28;20140;-57
2022/07/20 08:16:41;;;;;;;12.45;7.95;;;;;;;;;;5016572;28;20038;-57
2022/07/20 08:19:06;;;;;;;13.18;7.78;;;;;;;;;;5016038;28;20088;-56
2022/07/20 08:21:31;;;;;;;11.75;7.40;;;;;;;;;;5014244;28;20308;-57
2022/07/20 08:23:57;;;;;;;14.07;8.02;;;;;;;;;;5014874;28;20041;-57
2022/07/20 08:26:22;;;;;;;12.40;7.95;;;;;;;;;;5016153;28;20013;-57
2022/07/20 08:28:47;;;;;;;11.38;7.82;;;;;;;;;;5018257;28;20030;-57
2022/07/20 08:31:13;;;;;;;19.52;8.20;;;;;;;;;;5013174;28;20033;-57
2022/07/20 08:33:38;;;;;;;14.73;7.68;;;;;;;;;;5014606;28;20503;-57
2022/07/20 08:36:04;;;;;;;13.60;8.75;;;;;;;;;;5019174;28;20032;-57
2022/07/20 08:38:29;;;;;;;14.10;7.97;;;;;;;;;;5017512;28;20040;-57
2022/07/20 08:40:57;;;;;;;14.43;8.68;;;;;;;;;;5016109;28;20037;-57
2022/07/20 08:43:23;;;;;;;11.25;7.88;;;;;;;;;;5014445;28;20558;-57
2022/07/20 08:45:50;;;;;;;13.15;8.77;;;;;;;;;;5021439;28;20108;-59
2022/07/20 08:48:18;;;;;;;13.65;8.50;;;;;;;;;;5023123;28;20056;-57
2022/07/20 08:50:45;;;;;;;13.53;8.20;;;;;;;;;;5022334;28;20104;-57
2022/07/20 08:53:10;;;;;;;16.42;9.00;;;;;;;;;;5025339;28;20057;-56
2022/07/20 08:55:36;;;;;;;17.38;9.90;;;;;;;;;;5023976;28;20518;-58
2022/07/20 08:58:01;;;;;;;11.32;8.98;;;;;;;;;;5025810;28;20438;-57
2022/07/20 09:00:27;;;;;;;12.77;9.48;;;;;;;;;;5026947;28;20366;-56
2022/07/20 09:02:57;;;;;;;16.88;9.65;;;;;;;;;;5027113;28;20060;-57
2022/07/20 09:05:25;;;;;;;13.88;9.38;;;;;;;;;;5025337;28;20029;-57
2022/07/20 09:07:55;;;;;;;16.75;9.20;;;;;;;;;;5026152;28;20031;-57
2022/07/20 09:10:33;;;;;;;11.85;8.90;;;;;;;;;;5023048;28;20097;-57
2022/07/20 09:13:03;;;;;;;17.67;9.13;;;;;;;;;;5025175;28;20021;-57
2022/07/20 09:15:33;;;;;;;10.63;8.85;;;;;;;;;;5023863;28;20042;-57
2022/07/20 09:18:31;;;;;;;15.23;9.15;;;;;;;;;;5020679;28;20049;-57
2022/07/20 09:20:58;;;;;;;11.10;9.05;;;;;;;;;;5018679;28;20048;-57
2022/07/20 09:23:42;;;;;;;11.68;7.72;;;;;;;;;;5022893;28;20026;-57
2022/07/20 09:26:15;;;;;;;11.70;8.38;;;;;;;;;;5019450;28;20036;-57
2022/07/20 09:28:44;;;;;;;11.20;7.68;;;;;;;;;;5026731;28;20037;-57
2022/07/20 09:31:25;;;;;;;12.40;8.48;;;;;;;;;;5023410;28;20033;-57
2022/07/20 09:34:07;;;;;;;13.93;8.45;;;;;;;;;;5019727;28;20552;-57
2022/07/20 09:36:34;;;;;;;11.10;7.75;;;;;;;;;;5021618;28;20022;-60
2022/07/20 09:39:11;;;;;;;10.70;7.57;;;;;;;;;;5021529;28;20036;-57
2022/07/20 09:41:41;;;;;;;11.05;7.25;;;;;;;;;;5020014;28;20125;-57
2022/07/20 09:44:10;;;;;;;11.90;8.15;;;;;;;;;;5026805;28;20475;-57
2022/07/20 09:46:37;;;;;;;10.25;6.90;;;;;;;;;;5024107;28;20021;-57
2022/07/20 09:49:12;;;;;;;11.68;7.20;;;;;;;;;;5030385;28;20025;-57
2022/07/20 09:51:41;;;;;;;12.63;7.07;;;;;;;;;;5019640;28;20120;-57
2022/07/20 09:54:12;;;;;;;10.25;7.28;;;;;;;;;;5025018;28;20109;-57
2022/07/20 09:56:40;;;;;;;11.40;6.90;;;;;;;;;;5029959;28;20041;-58
2022/07/20 09:59:08;;;;;;;10.60;7.25;;;;;;;;;;5029324;28;20131;-56
2022/07/20 10:01:36;;;;;;;17.45;7.35;;;;;;;;;;5028224;28;20395;-56
2022/07/20 10:04:05;;;;;;;14.50;6.45;;;;;;;;;;5028979;28;20549;-57
2022/07/20 10:06:30;;;;;;;9.38;6.30;;;;;;;;;;5027857;28;20485;-57
2022/07/20 10:08:57;;;;;;;9.93;6.93;;;;;;;;;;5028722;28;20076;-56
2022/07/20 10:11:24;;;;;;;14.48;7.78;;;;;;;;;;5026101;28;20368;-58
2022/07/20 10:13:52;;;;;;;12.73;7.47;;;;;;;;;;5030242;28;20503;-58
2022/07/20 10:16:35;;;;;;;12.13;7.50;;;;;;;;;;5027916;28;20029;-58
2022/07/20 10:19:02;;;;;;;11.35;7.47;;;;;;;;;;5027820;28;20029;-58
2022/07/20 10:21:40;;;;;;;9.88;7.32;;;;;;;;;;5028750;28;20033;-58
2022/07/20 10:24:30;;;;;;;10.83;7.03;;;;;;;;;;5026400;28;20083;-58
2022/07/20 10:27:08;;;;;;;9.38;6.70;;;;;;;;;;5024041;28;20264;-58
2022/07/20 10:29:36;;;;;;;11.68;7.32;;;;;;;;;;5028495;28;20484;-58
2022/07/20 10:32:16;;;;;;;14.50;7.40;;;;;;;;;;5030320;28;20109;-58
2022/07/20 10:34:43;;;;;;;8.85;7.25;;;;;;;;;;5027320;28;20029;-57
2022/07/20 10:37:20;;;;;;;11.65;7.05;;;;;;;;;;5025667;28;20036;-58
2022/07/20 10:39:47;;;;;;;9.98;7.30;;;;;;;;;;5021253;28;20031;-58
2022/07/20 10:42:32;;;;;;;9.90;6.90;;;;;;;;;;5027939;28;20450;-57
2022/07/20 10:45:16;;;;;;;9.85;7.40;;;;;;;;;;5024772;28;20026;-57
2022/07/20 10:47:55;;;;;;;11.75;7.10;;;;;;;;;;5026837;28;20032;-57
2022/07/20 10:50:23;;;;;;;11.63;6.55;;;;;;;;;;5023037;28;20052;-57
2022/07/20 10:52:53;;;;;;;9.90;7.60;;;;;;;;;;5023386;28;20040;-58
2022/07/20 10:55:33;;;;;;;12.45;7.10;;;;;;;;;;5023287;28;20029;-58
2022/07/20 10:58:11;;;;;;;9.00;7.13;;;;;;;;;;5022545;28;20387;-57
2022/07/20 11:00:42;;;;;;;10.57;7.53;;;;;;;;;;5021836;28;20073;-54
2022/07/20 11:03:12;;;;;;;14.80;7.95;;;;;;;;;;5029124;28;20033;-58
2022/07/20 11:05:38;;;;;;;13.57;7.60;;;;;;;;;;5016593;28;20025;-57
2022/07/20 11:08:08;;;;;;;10.60;7.45;;;;;;;;;;5018787;28;20041;-57
2022/07/20 11:10:34;;;;;;;11.02;7.10;;;;;;;;;;5021290;28;20465;-57
2022/07/20 11:13:05;;;;;;;11.07;7.45;;;;;;;;;;5022241;28;20117;-58
2022/07/20 11:15:41;;;;;;;10.55;7.60;;;;;;;;;;5016605;28;20042;-58
2022/07/20 11:18:08;;;;;;;9.38;7.03;;;;;;;;;;5020206;28;20466;-57
2022/07/20 11:20:33;;;;;;;9.50;6.82;;;;;;;;;;5019554;28;20022;-58
2022/07/20 11:23:01;;;;;;;7.15;6.40;;;;;;;;;;5015900;28;20029;-57
2022/07/20 11:25:28;;;;;;;7.75;6.78;;;;;;;;;;5025689;28;20404;-58
2022/07/20 11:28:00;;;;;;;10.15;7.05;;;;;;;;;;5024008;28;20056;-58
2022/07/20 11:30:34;;;;;;;11.77;6.70;;;;;;;;;;5021884;28;20038;-58
2022/07/20 11:33:00;;;;;;;13.45;7.70;;;;;;;;;;5024744;28;20558;-57
2022/07/20 11:35:25;;;;;;;13.15;7.00;;;;;;;;;;5022581;28;20032;-58
2022/07/20 11:37:52;;;;;;;8.75;7.25;;;;;;;;;;5021088;28;20442;-58
2022/07/20 11:40:18;;;;;;;9.88;6.47;;;;;;;;;;5020239;28;20211;-58
2022/07/20 11:42:43;;;;;;;9.27;6.95;;;;;;;;;;5026656;28;20074;-58
2022/07/20 11:45:09;;;;;;;10.18;7.00;;;;;;;;;;5023590;28;20030;-58
2022/07/20 11:47:34;;;;;;;8.43;6.75;;;;;;;;;;5019002;28;20353;-58
2022/07/20 11:50:07;;;;;;;9.82;6.60;;;;;;;;;;5018609;28;20048;-58
2022/07/20 11:52:40;;;;;;;9.88;6.90;;;;;;;;;;5021257;28;20474;-58
2022/07/20 11:55:06;;;;;;;12.23;7.68;;;;;;;;;;5012292;28;20423;-58
2022/07/20 11:57:32;;;;;;;13.40;7.07;;;;;;;;;;5010122;28;20431;-58
2022/07/20 11:59:58;;;;;;;10.88;7.07;;;;;;;;;;5014532;28;20037;-58
2022/07/20 12:02:24;;;;;;;11.80;7.07;;;;;;;;;;5014431;28;20283;-58
2022/07/20 12:04:50;;;;;;;9.27;6.85;;;;;;;;;;5011531;28;20037;-58
2022/07/20 12:10:15;;;;;;;13.18;7.32;;;;;;;;;;5014109;28;20064;-58
2022/07/20 12:12:47;;;;;;;9.82;6.82;;;;;;;;;;5017943;28;20068;-58
2022/07/20 12:15:14;;;;;;;13.70;7.30;;;;;;;;;;5018517;28;20061;-57
2022/07/20 12:17:48;;;;;;;10.23;7.43;;;;;;;;;;5018376;28;20072;-57
2022/07/20 12:20:14;;;;;;;9.75;7.47;;;;;;;;;;5014775;28;20479;-58
2022/07/20 12:22:50;;;;;;;11.77;7.07;;;;;;;;;;5026793;28;20108;-57
2022/07/20 12:25:15;;;;;;;10.75;7.22;;;;;;;;;;5020593;28;20117;-58
2022/07/20 12:27:42;;;;;;;8.10;6.28;;;;;;;;;;5026781;28;20116;-58
2022/07/20 12:30:27;;;;;;;12.98;6.93;;;;;;;;;;5023111;28;20057;-58
2022/07/20 12:33:08;;;;;;;14.80;7.30;;;;;;;;;;5023045;28;20044;-58
2022/07/20 12:35:35;;;;;;;11.45;7.18;;;;;;;;;;5027611;28;20039;-58
2022/07/20 12:38:02;;;;;;;9.48;6.97;;;;;;;;;;5020546;28;20510;-58
2022/07/20 12:40:44;;;;;;;10.68;6.85;;;;;;;;;;5025936;28;20037;-58
2022/07/20 12:43:26;;;;;;;10.18;6.75;;;;;;;;;;5025081;28;20474;-58
2022/07/20 12:45:52;;;;;;;10.32;6.28;;;;;;;;;;5026744;28;20080;-58
2022/07/20 12:48:18;;;;;;;11.32;6.93;;;;;;;;;;5019177;28;20056;-55
2022/07/20 12:50:44;;;;;;;11.27;7.07;;;;;;;;;;5022144;28;20107;-58
2022/07/20 12:53:09;;;;;;;12.35;6.93;;;;;;;;;;5018284;28;20034;-58
2022/07/20 12:55:35;;;;;;;11.15;6.25;;;;;;;;;;5028170;28;20041;-58
2022/07/20 12:58:00;;;;;;;15.60;7.10;;;;;;;;;;5027661;28;20021;-58
2022/07/20 13:00:26;;;;;;;10.15;6.90;;;;;;;;;;5027432;28;20033;-58
2022/07/20 13:02:51;;;;;;;7.82;6.78;;;;;;;;;;5027091;28;20125;-54
2022/07/20 13:05:17;;;;;;;9.27;6.38;;;;;;;;;;5027179;28;20260;-54
2022/07/20 13:07:46;;;;;;;11.45;6.30;;;;;;;;;;5027641;28;20119;-59
2022/07/20 13:10:13;;;;;;;13.10;6.30;;;;;;;;;;5025974;28;20052;-60
2022/07/20 13:12:38;;;;;;;13.20;6.95;;;;;;;;;;5028529;28;20029;-60
2022/07/20 13:15:06;;;;;;;37.97;7.65;;;;;;;;;;5024376;28;20083;-61
2022/07/20 13:17:32;;;;;;;16.80;7.18;;;;;;;;;;5026184;28;20025;-58
2022/07/20 13:19:58;;;;;;;14.40;6.82;;;;;;;;;;5024069;28;20041;-60
2022/07/20 13:22:23;;;;;;;10.98;7.20;;;;;;;;;;5024964;28;20148;-60
2022/07/20 13:24:49;;;;;;;17.38;10.10;;;;;;;;;;5027635;28;20043;-60
2022/07/20 13:27:14;;;;;;;18.35;11.65;;;;;;;;;;5026838;28;20105;-60
2022/07/20 13:29:40;;;;;;;17.52;11.60;;;;;;;;;;5026823;28;20435;-60
2022/07/20 13:32:05;;;;;;;25.17;12.48;;;;;;;;;;5023142;28;20032;-56
2022/07/20 13:34:31;;;;;;;26.42;12.57;;;;;;;;;;5027728;28;20099;-56
2022/07/20 13:36:56;;;;;;;22.08;12.70;;;;;;;;;;5029921;28;20163;-58
2022/07/20 13:39:22;;;;;;;23.08;12.52;;;;;;;;;;5028347;28;20267;-56
2022/07/20 13:41:47;;;;;;;18.35;13.40;;;;;;;;;;5016899;28;20030;-56
2022/07/20 13:44:13;;;;;;;28.52;13.57;;;;;;;;;;5022109;28;20041;-55
2022/07/20 13:46:38;;;;;;;24.00;13.35;;;;;;;;;;5022894;28;20113;-56
2022/07/20 13:49:04;;;;;;;19.05;13.90;;;;;;;;;;5024140;28;20031;-56
2022/07/20 13:51:30;;;;;;;23.15;13.30;;;;;;;;;;5026444;28;20080;-56
2022/07/20 13:53:55;;;;;;;18.52;13.00;;;;;;;;;;5027255;28;20083;-56
2022/07/20 13:56:22;;;;;;;15.13;12.85;;;;;;;;;;5028293;28;20061;-55
2022/07/20 13:58:47;;;;;;;22.50;14.68;;;;;;;;;;5026330;28;20033;-54
2022/07/20 14:01:13;;;;;;;20.83;13.27;;;;;;;;;;5024241;28;20033;-55
2022/07/20 14:03:39;;;;;;;20.92;13.95;;;;;;;;;;5029386;28;20029;-56
2022/07/20 14:06:05;;;;;;;26.52;14.38;;;;;;;;;;5025124;28;20514;-54
2022/07/20 14:08:30;;;;;;;24.80;14.73;;;;;;;;;;5025758;28;20041;-55
2022/07/20 14:10:56;;;;;;;23.33;14.70;;;;;;;;;;5022665;28;20029;-56
2022/07/20 14:13:22;;;;;;;21.75;14.50;;;;;;;;;;5024543;28;20038;-57
2022/07/20 14:15:48;;;;;;;27.52;14.65;;;;;;;;;;5025419;28;20491;-57
2022/07/20 14:18:14;;;;;;;19.90;14.38;;;;;;;;;;5027391;28;20083;-56
2022/07/20 14:20:39;;;;;;;22.60;14.23;;;;;;;;;;5027745;28;20375;-57
2022/07/20 14:23:06;;;;;;;25.67;14.70;;;;;;;;;;5021109;28;20034;-58
2022/07/20 14:25:32;;;;;;;31.73;15.02;;;;;;;;;;5024696;28;20458;-57
2022/07/20 14:27:57;;;;;;;24.85;16.33;;;;;;;;;;5026992;28;20029;-57
2022/07/20 14:30:23;;;;;;;24.80;15.48;;;;;;;;;;5027364;28;20034;-57
2022/07/20 14:32:48;;;;;;;22.77;16.98;;;;;;;;;;5023608;28;20064;-57
2022/07/20 14:35:14;;;;;;;26.02;17.20;;;;;;;;;;5024895;28;20026;-57
2022/07/20 14:37:40;;;;;;;24.92;17.45;;;;;;;;;;5032088;28;20493;-58